createdAt,value
2022-07-30T00:02:56.842Z,99.90
2022-07-30T00:09:39.285Z,99.90
2022-07-30T00:16:21.949Z,99.90
2022-07-30T00:23:04.943Z,99.90
2022-07-30T00:29:47.397Z,99.90
2022-07-30T00:36:30.029Z,99.90
2022-07-30T00:43:16.300Z,99.90
2022-07-30T00:49:58.789Z,99.90
2022-07-30T00:56:41.634Z,99.90
2022-07-30T01:03:24.584Z,99.90
2022-07-30T01:10:09.501Z,99.90
2022-07-30T01:16:51.949Z,99.90
2022-07-30T01:23:45.496Z,99.90
2022-07-30T01:30:31.166Z,99.90
2022-07-30T01:37:16.753Z,99.90
2022-07-30T01:44:00.405Z,99.90
2022-07-30T01:50:46.624Z,99.90
2022-07-30T01:57:30.743Z,99.90
2022-07-30T02:04:13.705Z,99.90
2022-07-30T02:11:07.072Z,99.90
2022-07-30T02:17:49.383Z,99.90
2022-07-30T02:24:34.377Z,99.90
2022-07-30T02:31:20.812Z,99.90
2022-07-30T02:38:05.519Z,99.90
2022-07-30T02:44:50.477Z,99.90
2022-07-30T02:51:35.312Z,99.90
2022-07-30T02:58:21.366Z,99.90
2022-07-30T03:05:06.349Z,99.90
2022-07-30T03:11:52.492Z,99.90
2022-07-30T03:18:37.973Z,99.90
2022-07-30T03:32:45.339Z,99.90
2022-07-30T03:39:29.430Z,99.90
2022-07-30T03:46:13.377Z,99.90
2022-07-30T03:53:00.501Z,99.90
2022-07-30T03:59:45.071Z,99.90
2022-07-30T04:06:27.630Z,99.90
2022-07-30T04:20:37.225Z,99.90
2022-07-30T04:27:20.652Z,99.90
2022-07-30T04:34:05.014Z,99.90
2022-07-30T04:40:54.186Z,99.90
2022-07-30T04:47:36.665Z,99.90
2022-07-30T04:54:42.256Z,99.90
2022-07-30T05:01:34.135Z,99.90
2022-07-30T05:08:25.675Z,99.90
2022-07-30T05:15:09.762Z,99.90
2022-07-30T05:21:52.364Z,99.90
2022-07-30T05:28:34.789Z,99.90
2022-07-30T05:35:22.604Z,95.90
2022-07-30T05:42:05.097Z,92.30
2022-07-30T05:49:01.861Z,90.30
2022-07-30T05:56:03.192Z,89.60
2022-07-30T06:03:11.876Z,85.60
2022-07-30T06:10:15.939Z,81.40
2022-07-30T06:16:58.640Z,77.20
2022-07-30T06:23:45.103Z,75.20
2022-07-30T06:30:34.840Z,73.60
2022-07-30T06:37:17.336Z,71.60
2022-07-30T06:44:00.343Z,69.80
2022-07-30T06:51:00.314Z,68.60
2022-07-30T06:57:43.747Z,67.80
2022-07-30T07:04:46.115Z,68.20
2022-07-30T07:11:28.789Z,66.90
2022-07-30T07:18:12.817Z,67.00
2022-07-30T07:24:59.168Z,67.20
2022-07-30T07:32:07.072Z,67.40
2022-07-30T07:38:48.251Z,67.50
2022-07-30T07:45:30.723Z,68.00
2022-07-30T07:52:19.158Z,66.40
2022-07-30T07:59:02.271Z,66.20
2022-07-30T08:05:53.861Z,67.00
2022-07-30T08:13:05.295Z,66.50
2022-07-30T08:20:28.701Z,66.10
2022-07-30T08:27:14.956Z,65.40
2022-07-30T08:33:58.128Z,65.70
2022-07-30T08:40:42.087Z,64.60
2022-07-30T08:47:33.028Z,65.10
2022-07-30T08:54:27.686Z,63.90
2022-07-30T09:01:10.126Z,63.10
2022-07-30T09:07:52.545Z,63.30
2022-07-30T09:14:38.037Z,61.50
2022-07-30T09:21:29.975Z,62.80
2022-07-30T09:28:34.290Z,61.20
2022-07-30T09:35:35.471Z,62.90
2022-07-30T09:42:28.784Z,61.90
2022-07-30T09:49:16.174Z,61.00
2022-07-30T09:55:59.506Z,61.10
2022-07-30T10:02:42.265Z,61.10
2022-07-30T10:09:48.845Z,60.20
2022-07-30T10:23:35.835Z,63.50
2022-07-30T10:30:39.133Z,63.20
2022-07-30T10:37:25.499Z,62.00
2022-07-30T10:44:34.789Z,62.10
2022-07-30T10:51:25.226Z,61.20
2022-07-30T10:58:15.567Z,60.90
2022-07-30T11:05:43.725Z,61.90
2022-07-30T11:12:45.264Z,62.90
2022-07-30T11:19:56.067Z,63.20
2022-07-30T11:33:41.335Z,63.90
2022-07-30T11:40:26.411Z,63.50
2022-07-30T11:47:09.271Z,64.00
2022-07-30T11:54:02.701Z,63.60
2022-07-30T12:07:47.921Z,63.80
2022-07-30T12:14:39.312Z,63.60
2022-07-30T12:21:24.524Z,63.70
2022-07-30T12:28:07.922Z,63.80
2022-07-30T12:34:57.964Z,63.70
2022-07-30T12:41:53.085Z,63.70
2022-07-30T12:48:35.780Z,63.40
2022-07-30T12:55:27.888Z,62.80
2022-07-30T13:02:10.483Z,63.40
2022-07-30T13:08:55.460Z,63.40
2022-07-30T13:15:40.816Z,62.80
2022-07-30T13:22:39.202Z,62.90
2022-07-30T13:29:21.596Z,62.80
2022-07-30T13:36:04.678Z,62.90
2022-07-30T13:42:47.024Z,63.00
2022-07-30T13:49:29.499Z,63.60
2022-07-30T13:56:13.203Z,63.10
2022-07-30T14:02:55.665Z,62.50
2022-07-30T14:09:45.795Z,62.70
2022-07-30T14:23:47.905Z,62.50
2022-07-30T14:30:30.444Z,62.60
2022-07-30T14:37:14.299Z,62.80
2022-07-30T14:43:57.258Z,62.40
2022-07-30T14:51:03.346Z,62.40
2022-07-30T14:57:43.355Z,62.40
2022-07-30T15:04:25.800Z,62.20
2022-07-30T15:11:08.325Z,62.00
2022-07-30T15:17:52.118Z,62.20
2022-07-30T15:24:34.566Z,62.30
2022-07-30T15:31:16.972Z,61.70
2022-07-30T15:38:00.403Z,62.10
2022-07-30T15:44:48.765Z,61.60
2022-07-30T15:51:32.607Z,62.10
2022-07-30T15:58:14.978Z,62.30
2022-07-30T16:04:57.427Z,62.60
2022-07-30T16:11:41.490Z,62.80
2022-07-30T16:18:24.443Z,62.90
2022-07-30T16:25:07.164Z,63.20
2022-07-30T16:31:49.884Z,62.90
2022-07-30T16:38:32.455Z,63.50
2022-07-30T16:45:14.818Z,63.70
2022-07-30T16:51:57.228Z,63.50
2022-07-30T16:58:39.574Z,64.10
2022-07-30T17:05:21.937Z,64.70
2022-07-30T17:12:09.606Z,64.20
2022-07-30T17:18:54.953Z,64.10
2022-07-30T17:25:37.395Z,64.00
2022-07-30T17:32:20.945Z,63.60
2022-07-30T17:39:05.046Z,63.50
2022-07-30T17:45:47.411Z,63.60
2022-07-30T17:52:29.769Z,64.30
2022-07-30T17:59:14.056Z,64.90
2022-07-30T18:05:56.692Z,65.40
2022-07-30T18:12:39.693Z,64.40
2022-07-30T18:19:31.663Z,64.90
2022-07-30T18:26:14.022Z,65.80
2022-07-30T18:32:56.492Z,65.40
2022-07-30T18:39:39.024Z,65.40
2022-07-30T18:46:21.548Z,65.60
2022-07-30T18:53:15.581Z,66.20
2022-07-30T18:59:58.262Z,67.10
2022-07-30T19:06:40.804Z,67.00
2022-07-30T19:13:24.087Z,68.10
2022-07-30T19:20:08.087Z,68.20
2022-07-30T19:26:50.795Z,69.80
2022-07-30T19:33:33.165Z,71.00
2022-07-30T19:40:15.687Z,72.20
2022-07-30T19:46:58.384Z,73.10
2022-07-30T19:54:19.610Z,74.30
2022-07-30T20:01:02.210Z,77.50
2022-07-30T20:07:51.023Z,78.30
2022-07-30T20:14:34.412Z,78.10
2022-07-30T20:21:17.695Z,80.00
2022-07-30T20:28:00.520Z,78.20
2022-07-30T20:34:43.027Z,81.60
2022-07-30T20:41:28.324Z,82.70
2022-07-30T20:48:17.446Z,84.80
2022-07-30T20:55:16.321Z,86.70
2022-07-30T21:01:59.129Z,88.00
2022-07-30T21:08:42.195Z,87.10
2022-07-30T21:15:24.637Z,88.50
2022-07-30T21:22:08.726Z,90.40
2022-07-30T21:28:51.433Z,90.30
2022-07-30T21:35:34.524Z,90.10
2022-07-30T21:42:17.322Z,90.30
2022-07-30T21:49:08.431Z,91.50
2022-07-30T21:55:52.984Z,91.00
2022-07-30T22:02:35.706Z,91.40
2022-07-30T22:09:33.488Z,92.40
2022-07-30T22:16:16.823Z,93.10
2022-07-30T22:23:03.325Z,92.60
2022-07-30T22:29:48.782Z,93.00
2022-07-30T22:36:31.263Z,93.60
2022-07-30T22:43:15.997Z,93.80
2022-07-30T22:49:59.235Z,93.40
2022-07-30T22:56:46.104Z,93.00
2022-07-30T23:03:28.687Z,93.20
2022-07-30T23:10:18.184Z,93.80
2022-07-30T23:17:17.282Z,93.60
2022-07-30T23:23:59.662Z,93.80
2022-07-30T23:30:42.013Z,96.50
2022-07-30T23:44:42.930Z,96.60
2022-07-30T23:51:25.283Z,96.60
2022-07-30T23:58:16.262Z,96.70
